createdAt,value
2023-03-26T00:02:56.638Z,6062.00
2023-03-26T00:06:56.667Z,5609.00
2023-03-26T00:10:56.751Z,5617.00
2023-03-26T00:14:56.848Z,6283.00
2023-03-26T00:18:56.864Z,5976.00
2023-03-26T00:22:56.947Z,5121.00
2023-03-26T00:26:57.005Z,5167.00
2023-03-26T00:30:57.092Z,4962.00
2023-03-26T00:34:57.196Z,5374.00
2023-03-26T00:38:57.330Z,5933.00
2023-03-26T00:42:57.452Z,5424.00
2023-03-26T00:46:57.626Z,5538.00
2023-03-26T00:50:57.830Z,5829.00
2023-03-26T00:54:57.954Z,6087.00
2023-03-26T00:58:58.130Z,5981.00
2023-03-26T01:02:58.377Z,6384.00
2023-03-26T01:06:58.469Z,7175.00
2023-03-26T01:10:58.665Z,7250.00
2023-03-26T01:14:58.798Z,7106.00
2023-03-26T01:18:58.990Z,7216.00
2023-03-26T01:22:59.145Z,7536.00
2023-03-26T01:26:59.108Z,7210.00
2023-03-26T01:30:59.136Z,7193.00
2023-03-26T01:34:59.046Z,7159.00
2023-03-26T01:38:59.396Z,6803.00
2023-03-26T01:42:58.977Z,6428.00
2023-03-26T01:46:58.956Z,6360.00
2023-03-26T01:50:58.936Z,6150.00
2023-03-26T01:54:58.853Z,5384.00
2023-03-26T01:58:58.814Z,5618.00
2023-03-26T02:02:58.843Z,5202.00
2023-03-26T02:06:58.761Z,5682.00
2023-03-26T02:10:58.718Z,5460.00
2023-03-26T02:14:58.680Z,5443.00
2023-03-26T02:18:58.632Z,5229.00
2023-03-26T02:22:58.609Z,4782.00
2023-03-26T02:26:58.584Z,4688.00
2023-03-26T02:30:58.520Z,5387.00
2023-03-26T02:34:58.498Z,6506.00
2023-03-26T02:38:58.436Z,6218.00
2023-03-26T02:42:58.436Z,6133.00
2023-03-26T02:46:58.459Z,5451.00
2023-03-26T02:50:58.569Z,5383.00
2023-03-26T02:54:58.732Z,4776.00
2023-03-26T02:58:58.856Z,4998.00
2023-03-26T03:02:59.125Z,5597.00
2023-03-26T03:06:59.102Z,5536.00
2023-03-26T03:10:59.064Z,5622.00
2023-03-26T03:14:59.022Z,6011.00
2023-03-26T03:18:58.994Z,6592.00
2023-03-26T03:22:58.967Z,6814.00
2023-03-26T03:26:58.932Z,6870.00
2023-03-26T03:30:59.044Z,6807.00
2023-03-26T03:34:58.856Z,6710.00
2023-03-26T03:38:58.809Z,7181.00
2023-03-26T03:42:58.764Z,7184.00
2023-03-26T03:46:58.754Z,7283.00
2023-03-26T03:50:58.721Z,7069.00
2023-03-26T03:54:58.822Z,6852.00
2023-03-26T03:58:58.807Z,7310.00
2023-03-26T04:02:58.838Z,7215.00
2023-03-26T04:06:58.738Z,6940.00
2023-03-26T04:10:58.680Z,6946.00
2023-03-26T04:14:58.663Z,6785.00
2023-03-26T04:18:58.632Z,6767.00
2023-03-26T04:22:58.563Z,8089.00
2023-03-26T04:26:58.541Z,8559.00
2023-03-26T04:30:58.548Z,7818.00
2023-03-26T04:34:58.478Z,7815.00
2023-03-26T04:38:58.595Z,7661.00
2023-03-26T04:42:58.514Z,7485.00
2023-03-26T04:46:58.540Z,6761.00
2023-03-26T04:50:58.438Z,6931.00
2023-03-26T04:54:58.406Z,7094.00
2023-03-26T04:58:58.346Z,7152.00
2023-03-26T05:02:58.364Z,7377.00
2023-03-26T05:06:58.335Z,6966.00
2023-03-26T05:10:58.263Z,6404.00
2023-03-26T05:14:58.208Z,6747.00
2023-03-26T05:18:58.291Z,6838.00
2023-03-26T05:22:58.201Z,6330.00
2023-03-26T05:26:58.165Z,6625.00
2023-03-26T05:30:58.139Z,6664.00
2023-03-26T05:34:58.130Z,6294.00
2023-03-26T05:38:58.068Z,6609.00
2023-03-26T05:42:58.028Z,6945.00
2023-03-26T05:46:57.984Z,6457.00
2023-03-26T05:50:58.008Z,6393.00
2023-03-26T05:54:57.910Z,6173.00
2023-03-26T05:58:57.886Z,6014.00
2023-03-26T06:02:58.143Z,5694.00
2023-03-26T06:06:58.242Z,5952.00
2023-03-26T06:10:58.504Z,6107.00
2023-03-26T06:14:58.655Z,5731.00
2023-03-26T06:18:58.934Z,5529.00
2023-03-26T06:22:58.842Z,5691.00
2023-03-26T06:26:58.801Z,6008.00
2023-03-26T06:30:58.764Z,6080.00
2023-03-26T06:34:58.721Z,6353.00
2023-03-26T06:38:58.684Z,6189.00
2023-03-26T06:43:08.226Z,5858.00
2023-03-26T06:46:59.647Z,6095.00
2023-03-26T06:50:58.580Z,6322.00
2023-03-26T06:54:58.539Z,5982.00
2023-03-26T06:58:58.522Z,5911.00
2023-03-26T07:02:58.575Z,5763.00
2023-03-26T07:06:58.544Z,5908.00
2023-03-26T07:10:58.578Z,5726.00
2023-03-26T07:15:00.398Z,5762.00
2023-03-26T07:18:58.705Z,5451.00
2023-03-26T07:22:58.667Z,5437.00
2023-03-26T07:26:58.663Z,5048.00
2023-03-26T07:30:58.587Z,5120.00
2023-03-26T07:34:58.545Z,4855.00
2023-03-26T07:38:58.509Z,4799.00
2023-03-26T07:42:58.470Z,4774.00
2023-03-26T07:46:58.481Z,4529.00
2023-03-26T07:50:58.416Z,4350.00
2023-03-26T07:54:58.377Z,4226.00
2023-03-26T07:58:58.347Z,4328.00
2023-03-26T08:02:58.405Z,4231.00
2023-03-26T08:06:58.269Z,4250.00
2023-03-26T08:10:58.233Z,3931.00
2023-03-26T08:14:58.370Z,3677.00
2023-03-26T08:18:58.537Z,3761.00
2023-03-26T08:22:58.641Z,3350.00
2023-03-26T08:26:58.669Z,3668.00
2023-03-26T08:30:58.781Z,4309.00
2023-03-26T08:34:58.935Z,3547.00
2023-03-26T08:38:58.908Z,3104.00
2023-03-26T08:42:58.854Z,3227.00
2023-03-26T08:46:58.835Z,3538.00
2023-03-26T08:50:58.783Z,3103.00
2023-03-26T08:54:58.765Z,2944.00
2023-03-26T08:58:58.722Z,2971.00
2023-03-26T09:02:58.747Z,2829.00
2023-03-26T09:06:58.657Z,2608.00
2023-03-26T09:10:58.609Z,2674.00
2023-03-26T09:14:58.571Z,2647.00
2023-03-26T09:18:58.646Z,2632.00
2023-03-26T09:22:58.634Z,2859.00
2023-03-26T09:26:58.596Z,2674.00
2023-03-26T09:30:58.542Z,2557.00
2023-03-26T09:34:58.529Z,2524.00
2023-03-26T09:38:58.476Z,2134.00
2023-03-26T09:42:58.439Z,2117.00
2023-03-26T09:46:58.402Z,2371.00
2023-03-26T09:50:58.694Z,2081.00
2023-03-26T09:54:58.330Z,2136.00
2023-03-26T09:58:58.280Z,1678.00
2023-03-26T10:02:58.311Z,1847.00
2023-03-26T10:06:58.412Z,1627.00
2023-03-26T10:10:58.547Z,1421.00
2023-03-26T10:14:58.623Z,1339.00
2023-03-26T10:18:58.716Z,1282.00
2023-03-26T10:22:58.839Z,1360.00
2023-03-26T10:27:09.940Z,1474.00
2023-03-26T10:30:59.913Z,1683.00
2023-03-26T10:34:58.877Z,2248.00
2023-03-26T10:38:58.821Z,2468.00
2023-03-26T10:42:58.769Z,1982.00
2023-03-26T10:46:58.830Z,1938.00
2023-03-26T10:50:58.909Z,1599.00
2023-03-26T10:54:58.958Z,1646.00
2023-03-26T10:58:59.051Z,1843.00
2023-03-26T11:02:59.159Z,1772.00
2023-03-26T11:06:59.180Z,1532.00
2023-03-26T11:10:59.222Z,1792.00
2023-03-26T11:14:59.197Z,1966.00
2023-03-26T11:18:59.321Z,1994.00
2023-03-26T11:23:40.991Z,500.00
2023-03-26T11:27:40.947Z,537.00
2023-03-26T11:31:40.935Z,614.00
2023-03-26T11:35:41.736Z,573.00
2023-03-26T11:39:40.824Z,639.00
2023-03-26T11:43:40.785Z,529.00
2023-03-26T11:47:40.760Z,589.00
2023-03-26T11:51:40.720Z,651.00
2023-03-26T11:55:40.785Z,532.00
2023-03-26T11:59:53.310Z,562.00
2023-03-26T12:03:41.961Z,543.00
2023-03-26T12:07:40.912Z,592.00
2023-03-26T12:11:40.888Z,521.00
2023-03-26T12:15:40.992Z,566.00
2023-03-26T12:19:41.155Z,651.00
2023-03-26T12:23:41.273Z,592.00
2023-03-26T12:27:41.398Z,524.00
2023-03-26T12:31:41.505Z,582.00
2023-03-26T12:35:41.649Z,472.00
2023-03-26T12:40:06.646Z,441.00
2023-03-26T12:44:50.059Z,400.00
2023-03-26T12:47:57.630Z,531.00
2023-03-26T12:51:42.712Z,891.00
2023-03-26T12:55:41.657Z,1053.00
2023-03-26T12:59:41.645Z,585.00
2023-03-26T13:03:41.616Z,552.00
2023-03-26T13:07:41.589Z,559.00
2023-03-26T13:13:56.936Z,500.00
2023-03-26T13:17:56.963Z,428.00
2023-03-26T13:21:56.884Z,537.00
2023-03-26T13:25:56.819Z,1041.00
2023-03-26T13:29:56.932Z,1561.00
2023-03-26T13:33:56.782Z,2010.00
2023-03-26T13:37:56.739Z,2504.00
2023-03-26T13:41:56.665Z,2514.00
2023-03-26T13:45:56.680Z,2308.00
2023-03-26T13:49:56.599Z,2572.00
2023-03-26T13:53:56.563Z,3228.00
2023-03-26T13:57:56.532Z,2821.00
2023-03-26T14:01:56.522Z,2691.00
2023-03-26T14:05:56.655Z,2153.00
2023-03-26T14:09:56.895Z,2156.00
2023-03-26T14:13:57.025Z,2150.00
2023-03-26T14:17:57.206Z,1815.00
2023-03-26T14:21:57.152Z,2107.00
2023-03-26T14:25:57.124Z,3219.00
2023-03-26T14:29:57.695Z,3207.00
2023-03-26T14:33:57.035Z,3179.00
2023-03-26T14:37:57.013Z,2947.00
2023-03-26T14:41:56.973Z,2018.00
2023-03-26T14:45:56.923Z,1838.00
2023-03-26T14:49:56.895Z,2010.00
2023-03-26T14:53:56.849Z,1940.00
2023-03-26T14:57:56.817Z,3062.00
2023-03-26T15:01:56.851Z,3241.00
2023-03-26T15:05:56.733Z,3802.00
2023-03-26T15:09:56.698Z,4090.00
2023-03-26T15:13:56.693Z,3579.00
2023-03-26T15:17:56.677Z,3760.00
2023-03-26T15:21:56.847Z,3762.00
2023-03-26T15:25:57.023Z,2788.00
2023-03-26T15:29:57.205Z,3137.00
2023-03-26T15:33:57.392Z,3048.00
2023-03-26T15:37:57.604Z,3558.00
2023-03-26T15:41:57.846Z,3926.00
2023-03-26T15:45:58.100Z,4139.00
2023-03-26T15:49:58.232Z,4114.00
2023-03-26T15:53:58.405Z,4453.00
2023-03-26T15:57:58.619Z,4212.00
2023-03-26T16:01:58.618Z,4050.00
2023-03-26T16:05:58.548Z,4556.00
2023-03-26T16:09:58.556Z,4173.00
2023-03-26T16:13:58.450Z,3809.00
2023-03-26T16:17:58.457Z,3956.00
2023-03-26T16:21:58.380Z,4500.00
2023-03-26T16:25:58.360Z,4925.00
2023-03-26T16:29:58.325Z,5019.00
2023-03-26T16:33:58.272Z,4889.00
2023-03-26T16:37:58.250Z,4767.00
2023-03-26T16:42:06.453Z,5194.00
2023-03-26T16:45:59.310Z,4955.00
2023-03-26T16:50:08.603Z,4438.00
2023-03-26T16:53:59.228Z,4686.00
2023-03-26T16:57:58.242Z,4713.00
2023-03-26T17:01:58.502Z,4564.00
2023-03-26T17:05:58.645Z,4443.00
2023-03-26T17:09:58.616Z,4952.00
2023-03-26T17:13:58.585Z,4864.00
2023-03-26T17:17:58.613Z,5625.00
2023-03-26T17:21:58.489Z,5792.00
2023-03-26T17:25:58.476Z,5099.00
2023-03-26T17:29:58.433Z,4927.00
2023-03-26T17:33:58.392Z,5411.00
2023-03-26T17:37:58.360Z,5791.00
2023-03-26T17:41:58.323Z,5685.00
2023-03-26T17:46:03.333Z,4921.00
2023-03-26T17:49:59.285Z,4633.00
2023-03-26T17:53:58.213Z,4572.00
2023-03-26T17:57:58.200Z,4136.00
2023-03-26T18:01:58.129Z,4001.00
2023-03-26T18:05:58.288Z,3752.00
2023-03-26T18:09:58.044Z,3911.00
2023-03-26T18:13:58.084Z,4073.00
2023-03-26T18:17:58.208Z,4359.00
2023-03-26T18:21:58.184Z,2930.00
2023-03-26T18:25:58.265Z,1458.00
2023-03-26T18:30:02.825Z,1223.00
2023-03-26T18:33:58.361Z,2118.00
2023-03-26T18:37:58.319Z,4421.00
2023-03-26T18:41:58.326Z,4025.00
2023-03-26T18:45:58.517Z,3622.00
2023-03-26T18:49:58.610Z,4271.00
2023-03-26T18:53:58.690Z,3998.00
2023-03-26T18:57:58.759Z,3209.00
2023-03-26T19:01:58.874Z,2932.00
2023-03-26T19:05:58.785Z,2492.00
2023-03-26T19:09:58.822Z,1901.00
2023-03-26T19:13:58.864Z,1673.00
2023-03-26T19:17:58.928Z,2461.00
2023-03-26T19:21:59.731Z,3153.00
2023-03-26T19:25:58.930Z,3347.00
2023-03-26T19:29:59.055Z,2981.00
2023-03-26T19:33:59.192Z,2082.00
2023-03-26T19:37:59.299Z,1589.00
2023-03-26T19:41:59.334Z,1312.00
2023-03-26T19:46:01.216Z,1107.00
2023-03-26T19:49:59.562Z,972.00
2023-03-26T19:53:59.708Z,838.00
2023-03-26T19:57:59.871Z,768.00
2023-03-26T20:02:00.066Z,632.00
2023-03-26T20:06:00.191Z,553.00
2023-03-26T20:10:01.142Z,500.00
2023-03-26T20:14:00.518Z,500.00
2023-03-26T20:18:00.784Z,532.00
2023-03-26T20:22:00.825Z,505.00
2023-03-26T20:26:00.891Z,514.00
2023-03-26T20:30:00.963Z,548.00
2023-03-26T20:34:01.101Z,493.00
2023-03-26T20:38:01.218Z,518.00
2023-03-26T20:42:01.290Z,470.00
2023-03-26T20:46:01.402Z,500.00
2023-03-26T20:50:01.501Z,713.00
2023-03-26T20:54:01.662Z,797.00
2023-03-26T20:58:01.832Z,648.00
2023-03-26T21:02:02.059Z,705.00
2023-03-26T21:06:02.177Z,651.00
2023-03-26T21:10:02.324Z,688.00
2023-03-26T21:14:02.276Z,641.00
2023-03-26T21:18:02.284Z,580.00
2023-03-26T21:22:02.230Z,543.00
2023-03-26T21:26:02.170Z,511.00
2023-03-26T21:30:02.143Z,568.00
2023-03-26T21:34:02.094Z,600.00
2023-03-26T21:38:02.051Z,653.00
2023-03-26T21:42:05.292Z,788.00
2023-03-26T21:46:02.028Z,851.00
2023-03-26T21:50:01.968Z,917.00
2023-03-26T21:54:01.915Z,871.00
2023-03-26T21:58:01.856Z,881.00
2023-03-26T22:02:01.838Z,988.00
2023-03-26T22:06:01.791Z,869.00
2023-03-26T22:10:01.754Z,559.00
2023-03-26T22:14:01.779Z,440.00
2023-03-26T22:18:01.950Z,446.00
2023-03-26T22:22:01.973Z,495.00
2023-03-26T22:26:02.083Z,527.00
2023-03-26T22:30:02.161Z,606.00
2023-03-26T22:34:02.201Z,545.00
2023-03-26T22:38:02.273Z,627.00
2023-03-26T22:42:02.360Z,628.00
2023-03-26T22:46:02.554Z,765.00
2023-03-26T22:50:02.676Z,948.00
2023-03-26T22:54:02.867Z,1277.00
2023-03-26T22:58:03.042Z,1297.00
2023-03-26T23:02:03.088Z,1216.00
2023-03-26T23:06:03.007Z,1174.00
2023-03-26T23:10:02.946Z,1175.00
2023-03-26T23:14:02.894Z,1261.00
2023-03-26T23:18:02.915Z,1359.00
2023-03-26T23:22:02.817Z,879.00
2023-03-26T23:26:02.789Z,608.00
2023-03-26T23:30:02.753Z,622.00
2023-03-26T23:34:02.712Z,699.00
2023-03-26T23:38:02.674Z,849.00
2023-03-26T23:42:02.649Z,1081.00
2023-03-26T23:46:02.682Z,1051.00
2023-03-26T23:50:02.557Z,637.00
2023-03-26T23:54:02.532Z,581.00
2023-03-26T23:58:02.475Z,637.00
